createdAt,value
2018-12-20T00:00:44.466Z,73.77
2018-12-20T00:03:12.880Z,76.80
2018-12-20T00:05:41.343Z,84.47
2018-12-20T00:08:09.587Z,86.03
2018-12-20T00:10:37.881Z,67.33
2018-12-20T00:13:06.156Z,73.77
2018-12-20T00:15:34.396Z,79.87
2018-12-20T00:18:02.974Z,82.70
2018-12-20T00:20:31.400Z,82.50
2018-12-20T00:22:59.601Z,89.30
2018-12-20T00:25:28.140Z,70.17
2018-12-20T00:27:56.398Z,88.83
2018-12-20T00:30:24.673Z,86.57
2018-12-20T00:32:52.974Z,76.97
2018-12-20T00:35:21.257Z,91.43
2018-12-20T00:37:49.501Z,85.73
2018-12-20T00:40:17.714Z,68.13
2018-12-20T00:42:45.904Z,84.47
2018-12-20T00:45:14.151Z,72.03
2018-12-20T00:47:42.457Z,72.80
2018-12-20T00:50:10.600Z,71.37
2018-12-20T00:52:38.917Z,87.73
2018-12-20T00:55:07.432Z,73.23
2018-12-20T00:57:35.835Z,91.60
2018-12-20T01:00:05.360Z,91.40
2018-12-20T01:02:33.836Z,100.83
2018-12-20T01:05:02.183Z,73.40
2018-12-20T01:07:30.519Z,71.33
2018-12-20T01:09:58.765Z,70.00
2018-12-20T01:12:26.957Z,78.40
2018-12-20T01:14:55.304Z,87.20
2018-12-20T01:17:25.622Z,53.97
2018-12-20T01:19:53.820Z,92.03
2018-12-20T01:22:22.010Z,77.40
2018-12-20T01:24:50.283Z,72.07
2018-12-20T01:27:18.671Z,92.03
2018-12-20T01:29:46.923Z,89.30
2018-12-20T01:32:15.259Z,73.77
2018-12-20T01:34:43.563Z,77.13
2018-12-20T01:37:11.866Z,108.63
2018-12-20T01:39:40.278Z,73.70
2018-12-20T01:42:08.476Z,82.10
2018-12-20T01:44:36.635Z,71.27
2018-12-20T01:47:04.897Z,72.70
2018-12-20T01:49:33.309Z,78.40
2018-12-20T01:52:01.496Z,82.93
2018-12-20T01:54:29.919Z,96.07
2018-12-20T01:56:58.263Z,102.13
2018-12-20T01:59:26.855Z,81.53
2018-12-20T02:01:55.099Z,92.70
2018-12-20T02:04:23.251Z,86.20
2018-12-20T02:06:51.432Z,110.37
2018-12-20T02:09:19.755Z,94.40
2018-12-20T02:11:48.089Z,95.00
2018-12-20T02:14:16.313Z,75.43
2018-12-20T02:16:44.662Z,97.03
2018-12-20T02:19:12.908Z,78.83
2018-12-20T02:21:41.209Z,84.47
2018-12-20T02:24:09.497Z,99.20
2018-12-20T02:26:38.101Z,85.50
2018-12-20T02:29:06.651Z,62.40
2018-12-20T02:31:35.024Z,78.10
2018-12-20T02:34:03.521Z,94.47
2018-12-20T02:36:32.122Z,79.70
2018-12-20T02:39:00.397Z,83.40
2018-12-20T02:41:28.950Z,91.33
2018-12-20T02:43:57.347Z,97.33
2018-12-20T02:46:25.760Z,94.47
2018-12-20T02:48:54.219Z,87.67
2018-12-20T02:51:22.761Z,79.50
2018-12-20T02:53:51.141Z,59.93
2018-12-20T02:56:19.521Z,76.97
2018-12-20T02:58:47.866Z,61.77
2018-12-20T03:01:16.221Z,72.50
2018-12-20T03:03:44.454Z,90.83
2018-12-20T03:06:12.997Z,91.87
2018-12-20T03:08:41.405Z,92.83
2018-12-20T03:11:09.917Z,91.67
2018-12-20T03:13:38.202Z,79.37
2018-12-20T03:16:06.431Z,81.60
2018-12-20T03:18:34.895Z,84.20
2018-12-20T03:21:03.638Z,75.20
2018-12-20T03:23:31.956Z,73.17
2018-12-20T03:26:00.475Z,61.13
2018-12-20T03:28:28.765Z,64.07
2018-12-20T03:30:57.156Z,68.43
2018-12-20T03:33:25.389Z,76.33
2018-12-20T03:35:54.160Z,86.77
2018-12-20T03:38:22.349Z,77.57
2018-12-20T03:40:50.769Z,101.43
2018-12-20T03:43:18.983Z,72.17
2018-12-20T03:45:47.146Z,98.80
2018-12-20T03:48:15.691Z,64.60
2018-12-20T03:50:44.126Z,61.87
2018-12-20T03:53:12.599Z,99.63
2018-12-20T03:55:40.836Z,96.97
2018-12-20T03:58:09.219Z,77.23
2018-12-20T04:00:37.532Z,95.63
2018-12-20T04:03:05.736Z,91.83
2018-12-20T04:05:33.895Z,93.97
2018-12-20T04:08:02.157Z,90.23
2018-12-20T04:10:30.400Z,88.60
2018-12-20T04:12:59.043Z,78.40
2018-12-20T04:15:27.357Z,99.47
2018-12-20T04:17:56.191Z,84.40
2018-12-20T04:20:24.491Z,91.83
2018-12-20T04:22:52.992Z,79.03
2018-12-20T04:25:21.418Z,50.40
2018-12-20T04:27:49.933Z,72.83
2018-12-20T04:30:18.514Z,74.10
2018-12-20T04:32:47.126Z,78.50
2018-12-20T04:35:15.454Z,64.00
2018-12-20T04:37:43.607Z,59.40
2018-12-20T04:40:11.876Z,49.07
2018-12-20T04:42:40.234Z,60.87
2018-12-20T04:45:08.892Z,86.33
2018-12-20T04:47:37.480Z,81.97
2018-12-20T04:50:06.142Z,76.60
2018-12-20T04:52:34.732Z,67.40
2018-12-20T04:55:03.491Z,83.10
2018-12-20T04:57:31.731Z,79.57
2018-12-20T05:00:00.430Z,91.27
2018-12-20T05:02:28.857Z,94.50
2018-12-20T05:04:57.389Z,85.13
2018-12-20T05:07:25.903Z,74.47
2018-12-20T05:09:54.184Z,88.97
2018-12-20T05:12:22.564Z,91.60
2018-12-20T05:14:51.015Z,93.57
2018-12-20T05:17:19.267Z,88.30
2018-12-20T05:19:47.584Z,98.20
2018-12-20T05:22:16.082Z,89.47
2018-12-20T05:24:44.417Z,90.10
2018-12-20T05:27:12.840Z,99.67
2018-12-20T05:29:41.164Z,74.53
2018-12-20T05:32:09.547Z,71.17
2018-12-20T05:34:37.826Z,82.13
2018-12-20T05:37:06.195Z,75.33
2018-12-20T05:39:34.645Z,101.43
2018-12-20T05:42:03.095Z,91.27
2018-12-20T05:44:31.260Z,92.57
2018-12-20T05:46:59.727Z,67.20
2018-12-20T05:49:27.991Z,53.73
2018-12-20T05:51:56.208Z,85.10
2018-12-20T05:54:24.497Z,81.07
2018-12-20T05:56:52.782Z,92.87
2018-12-20T05:59:21.335Z,86.07
2018-12-20T06:01:49.703Z,74.43
2018-12-20T06:04:17.876Z,82.70
2018-12-20T06:06:46.209Z,93.37
2018-12-20T06:09:14.769Z,73.47
2018-12-20T06:11:43.134Z,88.53
2018-12-20T06:14:11.685Z,103.43
2018-12-20T06:16:39.932Z,105.53
2018-12-20T06:19:08.408Z,110.77
2018-12-20T06:21:36.667Z,111.83
2018-12-20T06:24:04.903Z,98.13
2018-12-20T06:26:33.139Z,92.93
2018-12-20T06:29:01.291Z,115.63
2018-12-20T06:31:30.160Z,122.30
2018-12-20T06:33:58.419Z,108.00
2018-12-20T06:36:26.612Z,108.00
2018-12-20T06:38:54.828Z,115.13
2018-12-20T06:41:22.979Z,84.67
2018-12-20T06:43:51.228Z,92.70
2018-12-20T06:46:21.341Z,86.03
2018-12-20T06:48:49.796Z,110.57
2018-12-20T06:51:18.072Z,95.30
2018-12-20T06:53:46.391Z,91.03
2018-12-20T06:56:14.777Z,98.90
2018-12-20T06:58:43.047Z,88.67
2018-12-20T07:01:11.212Z,95.03
2018-12-20T07:03:39.458Z,108.03
2018-12-20T07:06:07.773Z,100.40
2018-12-20T07:08:36.068Z,92.63
2018-12-20T07:11:04.319Z,110.50
2018-12-20T07:13:32.669Z,84.03
2018-12-20T07:16:00.872Z,94.40
2018-12-20T07:18:29.034Z,76.40
2018-12-20T07:20:57.228Z,93.50
2018-12-20T07:23:25.419Z,90.57
2018-12-20T07:25:53.580Z,71.90
2018-12-20T07:28:22.668Z,72.50
2018-12-20T07:30:50.826Z,72.17
2018-12-20T07:33:19.039Z,94.47
2018-12-20T07:35:47.280Z,83.27
2018-12-20T07:38:15.443Z,87.33
2018-12-20T07:40:43.701Z,101.80
2018-12-20T07:43:11.866Z,74.87
2018-12-20T07:45:40.120Z,102.70
2018-12-20T07:48:08.293Z,124.37
2018-12-20T07:50:36.456Z,84.27
2018-12-20T07:53:04.735Z,89.20
2018-12-20T07:55:33.099Z,89.20
2018-12-20T07:58:01.262Z,100.93
2018-12-20T08:00:33.591Z,90.10
2018-12-20T08:03:01.949Z,86.13
2018-12-20T08:05:30.120Z,93.80
2018-12-20T08:07:58.279Z,95.90
2018-12-20T08:10:26.562Z,49.80
2018-12-20T08:12:54.839Z,84.23
2018-12-20T08:15:23.019Z,80.90
2018-12-20T08:17:51.287Z,91.03
2018-12-20T08:20:19.455Z,86.80
2018-12-20T08:22:47.613Z,72.30
2018-12-20T08:25:15.783Z,97.17
2018-12-20T08:27:44.308Z,88.07
2018-12-20T08:30:12.603Z,100.73
2018-12-20T08:32:40.764Z,81.23
2018-12-20T08:35:08.937Z,81.70
2018-12-20T08:37:37.092Z,79.97
2018-12-20T08:40:07.040Z,76.90
2018-12-20T08:42:35.289Z,90.33
2018-12-20T08:45:03.727Z,44.40
2018-12-20T08:47:32.013Z,68.43
2018-12-20T08:50:00.172Z,60.13
2018-12-20T08:52:28.427Z,73.53
2018-12-20T08:54:56.679Z,52.53
2018-12-20T08:57:24.860Z,54.20
2018-12-20T08:59:53.129Z,70.00
2018-12-20T09:02:21.420Z,56.17
2018-12-20T09:04:49.760Z,53.40
2018-12-20T09:07:17.920Z,27.60
2018-12-20T09:09:46.071Z,32.83
2018-12-20T09:12:14.232Z,7.47
2018-12-20T09:14:42.394Z,4.57
2018-12-20T09:17:10.552Z,76.97
2018-12-20T09:19:38.712Z,13.53
2018-12-20T09:22:06.972Z,25.93
2018-12-20T09:24:35.131Z,4.17
2018-12-20T09:27:03.291Z,4.93
2018-12-20T09:29:31.451Z,15.43
2018-12-20T09:31:59.692Z,12.40
2018-12-20T09:34:27.973Z,8.53
2018-12-20T09:36:56.210Z,5.10
2018-12-20T09:39:24.364Z,7.77
2018-12-20T09:41:52.536Z,3.23
2018-12-20T09:44:20.775Z,6.47
2018-12-20T09:46:48.953Z,10.90
2018-12-20T09:49:17.340Z,8.07
2018-12-20T09:51:45.520Z,7.47
2018-12-20T09:54:13.680Z,8.03
2018-12-20T09:56:41.924Z,6.73
2018-12-20T09:59:10.199Z,8.97
2018-12-20T10:01:38.349Z,4.53
2018-12-20T10:04:06.645Z,6.13
2018-12-20T10:06:34.832Z,9.20
2018-12-20T10:09:03.379Z,6.03
2018-12-20T10:11:31.532Z,7.50
2018-12-20T10:13:59.856Z,11.57
2018-12-20T10:16:28.012Z,6.57
2018-12-20T10:18:56.191Z,8.83
2018-12-20T10:21:24.436Z,5.13
2018-12-20T10:23:52.671Z,6.63
2018-12-20T10:26:20.839Z,9.50
2018-12-20T10:28:49.033Z,4.13
2018-12-20T10:31:17.461Z,6.23
2018-12-20T10:33:45.635Z,5.20
2018-12-20T10:36:13.856Z,5.60
2018-12-20T10:38:42.025Z,4.40
2018-12-20T10:41:10.176Z,7.23
2018-12-20T10:43:38.336Z,7.20
2018-12-20T10:46:06.620Z,5.30
2018-12-20T10:48:34.784Z,2.73
2018-12-20T10:51:03.122Z,3.47
2018-12-20T10:53:31.551Z,8.00
2018-12-20T10:55:59.712Z,6.10
2018-12-20T10:58:27.881Z,5.63
2018-12-20T11:01:01.864Z,4.97
2018-12-20T11:03:35.723Z,6.00
2018-12-20T11:06:08.816Z,5.47
2018-12-20T11:08:41.258Z,3.40
2018-12-20T11:11:15.484Z,4.60
2018-12-20T11:13:43.667Z,3.47
2018-12-20T11:16:12.132Z,4.73
2018-12-20T11:18:40.291Z,10.77
2018-12-20T11:21:08.451Z,4.23
2018-12-20T11:23:36.612Z,5.83
2018-12-20T11:26:04.799Z,8.43
2018-12-20T11:28:33.011Z,4.50
2018-12-20T11:31:01.187Z,2.10
2018-12-20T11:33:29.339Z,3.00
2018-12-20T11:35:57.647Z,4.83
2018-12-20T11:38:25.887Z,7.67
2018-12-20T11:40:54.758Z,4.50
2018-12-20T11:43:22.969Z,5.63
2018-12-20T11:45:51.128Z,13.20
2018-12-20T11:48:19.301Z,6.33
2018-12-20T11:50:47.455Z,8.40
2018-12-20T11:53:15.688Z,4.43
2018-12-20T11:55:43.855Z,2.97
2018-12-20T11:58:12.011Z,5.57
2018-12-20T12:00:40.179Z,5.97
2018-12-20T12:03:08.479Z,24.40
2018-12-20T12:05:36.720Z,8.07
2018-12-20T12:08:04.896Z,8.00
2018-12-20T12:10:33.063Z,14.17
2018-12-20T12:13:01.299Z,6.10
2018-12-20T12:15:29.477Z,38.93
2018-12-20T12:17:57.688Z,24.87
2018-12-20T12:20:25.935Z,7.70
2018-12-20T12:22:54.104Z,3.53
2018-12-20T12:25:22.264Z,15.27
2018-12-20T12:27:50.443Z,5.43
2018-12-20T12:30:18.636Z,11.03
2018-12-20T12:32:46.920Z,13.67
2018-12-20T12:35:15.107Z,5.77
2018-12-20T12:37:43.369Z,5.73
2018-12-20T12:40:11.636Z,2.40
2018-12-20T12:42:39.827Z,2.00
2018-12-20T12:45:08.123Z,1.70
2018-12-20T12:47:41.888Z,4.70
2018-12-20T12:50:10.154Z,1.17
2018-12-20T12:52:38.367Z,1.23
2018-12-20T12:55:06.641Z,1.80
2018-12-20T12:57:36.432Z,1.17
2018-12-20T13:00:06.028Z,1.70
2018-12-20T13:02:34.406Z,2.63
2018-12-20T13:05:02.710Z,2.40
2018-12-20T13:07:31.140Z,1.60
2018-12-20T13:09:59.431Z,1.33
2018-12-20T13:12:27.734Z,2.43
2018-12-20T13:14:56.000Z,2.70
2018-12-20T13:17:24.261Z,1.33
2018-12-20T13:19:52.555Z,3.80
2018-12-20T13:22:20.755Z,1.90
2018-12-20T13:24:49.001Z,2.60
2018-12-20T13:27:17.213Z,3.57
2018-12-20T13:29:45.494Z,2.83
2018-12-20T13:32:13.758Z,1.60
2018-12-20T13:34:41.959Z,1.80
2018-12-20T13:37:15.773Z,2.83
2018-12-20T13:39:40.563Z,4.60
2018-12-20T13:42:08.724Z,2.57
2018-12-20T13:44:36.916Z,3.53
2018-12-20T13:47:05.288Z,3.37
2018-12-20T13:49:33.477Z,5.10
2018-12-20T13:52:01.660Z,3.07
2018-12-20T13:54:29.911Z,3.43
2018-12-20T13:56:58.255Z,3.93
2018-12-20T13:59:26.564Z,2.43
2018-12-20T14:01:54.756Z,1.47
2018-12-20T14:04:23.019Z,3.03
2018-12-20T14:06:51.196Z,3.07
2018-12-20T14:09:19.921Z,3.00
2018-12-20T14:11:48.444Z,3.00
2018-12-20T14:14:16.703Z,2.97
2018-12-20T14:16:44.996Z,3.07
2018-12-20T14:19:13.187Z,3.97
2018-12-20T14:21:41.380Z,5.83
2018-12-20T14:24:09.764Z,2.77
2018-12-20T14:26:37.935Z,2.60
2018-12-20T14:29:06.180Z,3.97
2018-12-20T14:31:34.380Z,4.10
2018-12-20T14:34:02.627Z,5.10
2018-12-20T14:36:31.037Z,8.17
2018-12-20T14:38:59.350Z,12.60
2018-12-20T14:41:27.675Z,5.83
2018-12-20T14:43:55.880Z,16.43
2018-12-20T14:46:24.078Z,4.17
2018-12-20T14:48:52.259Z,5.50
2018-12-20T14:51:20.504Z,5.27
2018-12-20T14:53:48.704Z,5.77
2018-12-20T14:56:16.907Z,5.07
2018-12-20T14:58:45.096Z,3.70
2018-12-20T15:01:13.383Z,4.27
2018-12-20T15:03:41.620Z,5.87
2018-12-20T15:06:09.947Z,5.00
2018-12-20T15:08:38.233Z,5.63
2018-12-20T15:11:06.528Z,4.43
2018-12-20T15:13:34.832Z,11.60
2018-12-20T15:16:03.433Z,6.93
2018-12-20T15:18:31.623Z,7.10
2018-12-20T15:20:59.912Z,5.20
2018-12-20T15:23:28.182Z,9.50
2018-12-20T15:25:56.711Z,6.80
2018-12-20T15:28:24.896Z,6.97
2018-12-20T15:30:53.091Z,5.03
2018-12-20T15:33:21.297Z,5.90
2018-12-20T15:35:49.575Z,4.03
2018-12-20T15:38:17.776Z,2.93
2018-12-20T15:40:46.053Z,4.67
2018-12-20T15:43:14.360Z,2.90
2018-12-20T15:45:42.663Z,4.70
2018-12-20T15:48:10.944Z,2.97
2018-12-20T15:50:39.132Z,7.20
2018-12-20T15:53:07.340Z,6.13
2018-12-20T15:55:35.528Z,5.10
2018-12-20T15:58:03.816Z,6.73
2018-12-20T16:00:32.133Z,3.47
2018-12-20T16:03:00.404Z,6.40
2018-12-20T16:05:28.776Z,5.20
2018-12-20T16:08:01.139Z,10.60
2018-12-20T16:10:29.572Z,6.73
2018-12-20T16:12:58.655Z,4.47
2018-12-20T16:15:26.938Z,6.30
2018-12-20T16:17:55.283Z,7.00
2018-12-20T16:20:23.468Z,6.10
2018-12-20T16:22:51.713Z,3.63
2018-12-20T16:25:20.006Z,4.23
2018-12-20T16:27:48.404Z,4.77
2018-12-20T16:30:16.584Z,4.83
2018-12-20T16:32:44.888Z,6.23
2018-12-20T16:35:13.117Z,5.43
2018-12-20T16:37:41.357Z,6.40
2018-12-20T16:40:09.788Z,9.93
2018-12-20T16:42:37.981Z,8.40
2018-12-20T16:45:07.259Z,7.53
2018-12-20T16:47:35.544Z,14.17
2018-12-20T16:50:04.408Z,7.70
2018-12-20T16:52:32.587Z,7.47
2018-12-20T16:55:00.876Z,8.83
2018-12-20T16:57:29.060Z,10.40
2018-12-20T16:59:57.327Z,7.23
2018-12-20T17:02:25.592Z,8.13
2018-12-20T17:04:53.783Z,6.33
2018-12-20T17:07:22.052Z,6.77
2018-12-20T17:09:50.233Z,3.97
2018-12-20T17:12:18.421Z,5.27
2018-12-20T17:14:46.612Z,4.97
2018-12-20T17:17:14.799Z,2.83
2018-12-20T17:19:43.036Z,7.60
2018-12-20T17:22:11.263Z,8.23
2018-12-20T17:24:39.483Z,4.30
2018-12-20T17:27:08.740Z,4.33
2018-12-20T17:29:37.203Z,3.77
2018-12-20T17:32:05.423Z,4.27
2018-12-20T17:34:33.709Z,3.97
2018-12-20T17:37:01.906Z,3.53
2018-12-20T17:39:30.264Z,5.57
2018-12-20T17:41:58.560Z,3.47
2018-12-20T17:44:26.925Z,4.70
2018-12-20T17:46:55.116Z,5.73
2018-12-20T17:49:30.470Z,5.80
2018-12-20T17:51:53.709Z,5.60
2018-12-20T17:54:21.976Z,4.27
2018-12-20T17:56:50.376Z,5.57
2018-12-20T17:59:18.636Z,4.20
2018-12-20T18:01:46.927Z,4.80
2018-12-20T18:04:15.189Z,5.83
2018-12-20T18:06:43.380Z,7.03
2018-12-20T18:09:11.656Z,9.57
2018-12-20T18:11:40.036Z,9.00
2018-12-20T18:14:08.261Z,6.17
2018-12-20T18:16:36.483Z,10.20
2018-12-20T18:19:04.864Z,5.70
2018-12-20T18:21:33.424Z,10.23
2018-12-20T18:24:01.596Z,6.47
2018-12-20T18:26:29.923Z,7.67
2018-12-20T18:28:58.166Z,5.20
2018-12-20T18:31:26.369Z,4.77
2018-12-20T18:33:54.620Z,6.37
2018-12-20T18:36:22.876Z,5.70
2018-12-20T18:38:51.168Z,3.60
2018-12-20T18:41:19.451Z,4.87
2018-12-20T18:43:47.717Z,3.57
2018-12-20T18:46:15.984Z,5.47
2018-12-20T18:48:44.255Z,4.60
2018-12-20T18:51:12.524Z,8.80
2018-12-20T18:53:40.848Z,6.43
2018-12-20T18:56:09.232Z,6.77
2018-12-20T18:58:37.500Z,7.07
2018-12-20T19:01:05.883Z,6.47
2018-12-20T19:03:34.291Z,9.83
2018-12-20T19:06:02.564Z,9.93
2018-12-20T19:08:30.811Z,5.17
2018-12-20T19:10:59.101Z,4.60
2018-12-20T19:13:27.411Z,6.13
2018-12-20T19:15:55.646Z,4.03
2018-12-20T19:18:24.171Z,6.47
2018-12-20T19:20:52.359Z,11.63
2018-12-20T19:23:20.652Z,5.57
2018-12-20T19:25:49.019Z,8.00
2018-12-20T19:28:17.308Z,3.93
2018-12-20T19:30:45.496Z,7.00
2018-12-20T19:33:13.720Z,6.40
2018-12-20T19:35:41.971Z,8.50
2018-12-20T19:38:10.154Z,8.17
2018-12-20T19:40:38.561Z,4.43
2018-12-20T19:43:07.348Z,3.27
2018-12-20T19:45:35.532Z,4.77
2018-12-20T19:48:03.810Z,5.27
2018-12-20T19:50:31.998Z,6.20
2018-12-20T19:53:00.315Z,6.60
2018-12-20T19:55:28.655Z,6.40
2018-12-20T19:57:56.969Z,5.77
2018-12-20T20:00:25.216Z,4.17
2018-12-20T20:02:53.395Z,5.10
2018-12-20T20:05:21.588Z,3.90
2018-12-20T20:07:49.772Z,9.33
2018-12-20T20:10:18.416Z,4.83
2018-12-20T20:12:46.729Z,5.60
2018-12-20T20:15:16.696Z,4.10
2018-12-20T20:17:45.446Z,9.60
2018-12-20T20:20:14.486Z,4.70
2018-12-20T20:22:43.151Z,3.53
2018-12-20T20:25:11.532Z,5.97
2018-12-20T20:27:39.748Z,5.97
2018-12-20T20:30:13.520Z,5.47
2018-12-20T20:32:41.851Z,5.87
2018-12-20T20:35:10.176Z,6.57
2018-12-20T20:37:38.361Z,5.93
2018-12-20T20:40:08.843Z,6.53
2018-12-20T20:42:37.024Z,5.43
2018-12-20T20:45:06.449Z,7.33
2018-12-20T20:47:34.660Z,5.53
2018-12-20T20:50:03.072Z,3.67
2018-12-20T20:52:31.276Z,4.90
2018-12-20T20:54:59.495Z,2.57
2018-12-20T20:57:27.828Z,6.07
2018-12-20T20:59:56.088Z,9.50
2018-12-20T21:02:24.376Z,5.97
2018-12-20T21:04:52.567Z,4.93
2018-12-20T21:07:20.827Z,5.10
2018-12-20T21:09:49.208Z,5.73
2018-12-20T21:12:22.832Z,6.57
2018-12-20T21:14:52.452Z,5.90
2018-12-20T21:17:17.829Z,7.03
2018-12-20T21:19:46.079Z,6.40
2018-12-20T21:22:14.392Z,5.43
2018-12-20T21:24:42.603Z,8.97
2018-12-20T21:27:10.820Z,5.10
2018-12-20T21:29:39.008Z,4.17
2018-12-20T21:32:07.233Z,5.80
2018-12-20T21:34:35.477Z,5.93
2018-12-20T21:37:03.671Z,4.87
2018-12-20T21:39:31.851Z,8.27
2018-12-20T21:42:00.096Z,3.37
2018-12-20T21:44:28.371Z,4.20
2018-12-20T21:46:56.572Z,8.00
2018-12-20T21:49:24.756Z,4.70
2018-12-20T21:51:52.965Z,2.93
2018-12-20T21:54:21.171Z,7.00
2018-12-20T21:56:49.511Z,6.33
2018-12-20T21:59:17.710Z,5.97
2018-12-20T22:01:45.884Z,6.93
2018-12-20T22:04:14.072Z,6.40
2018-12-20T22:06:42.255Z,3.97
2018-12-20T22:09:10.456Z,5.20
2018-12-20T22:11:38.634Z,7.17
2018-12-20T22:14:06.824Z,4.07
2018-12-20T22:16:35.007Z,4.53
2018-12-20T22:19:03.212Z,10.23
2018-12-20T22:21:31.404Z,4.97
2018-12-20T22:23:59.601Z,5.53
2018-12-20T22:26:27.776Z,6.23
2018-12-20T22:28:55.967Z,7.60
2018-12-20T22:31:24.159Z,6.77
2018-12-20T22:33:52.343Z,7.43
2018-12-20T22:36:20.532Z,4.53
2018-12-20T22:38:48.723Z,4.50
2018-12-20T22:41:16.915Z,7.50
2018-12-20T22:43:45.117Z,11.33
2018-12-20T22:46:13.296Z,3.67
2018-12-20T22:48:41.492Z,4.27
2018-12-20T22:51:09.764Z,5.53
2018-12-20T22:53:37.967Z,5.53
2018-12-20T22:56:06.156Z,5.97
2018-12-20T22:58:34.364Z,7.63
2018-12-20T23:01:04.036Z,8.10
2018-12-20T23:03:32.308Z,8.30
2018-12-20T23:06:01.452Z,6.33
2018-12-20T23:08:30.040Z,8.60
2018-12-20T23:10:58.240Z,7.73
2018-12-20T23:13:26.426Z,5.33
2018-12-20T23:15:54.625Z,4.60
2018-12-20T23:18:22.895Z,7.20
2018-12-20T23:20:51.188Z,3.77
2018-12-20T23:23:19.363Z,9.37
2018-12-20T23:25:47.579Z,6.17
2018-12-20T23:28:15.756Z,9.43
2018-12-20T23:30:43.951Z,5.60
2018-12-20T23:33:12.135Z,8.43
2018-12-20T23:35:40.333Z,6.10
2018-12-20T23:38:08.519Z,6.10
2018-12-20T23:40:36.715Z,7.10
2018-12-20T23:43:04.901Z,7.13
2018-12-20T23:45:33.183Z,5.37
2018-12-20T23:48:01.372Z,7.63
2018-12-20T23:50:29.576Z,6.17
2018-12-20T23:52:57.765Z,4.63
2018-12-20T23:55:25.971Z,8.17
2018-12-20T23:57:54.321Z,5.97
